createdAt,value
2023-05-16T00:00:53.307Z,50.57
2023-05-16T00:03:21.490Z,50.79
2023-05-16T00:05:50.504Z,50.67
2023-05-16T00:08:18.142Z,50.71
2023-05-16T00:10:45.859Z,50.69
2023-05-16T00:13:13.625Z,50.43
2023-05-16T00:15:41.696Z,50.63
2023-05-16T00:18:09.993Z,50.58
2023-05-16T00:20:38.381Z,50.78
2023-05-16T00:23:06.115Z,50.46
2023-05-16T00:25:33.971Z,50.66
2023-05-16T00:28:01.689Z,50.68
2023-05-16T00:30:29.578Z,50.85
2023-05-16T00:32:57.519Z,50.88
2023-05-16T00:35:25.416Z,50.71
2023-05-16T00:37:53.234Z,50.83
2023-05-16T00:40:22.780Z,50.56
2023-05-16T00:42:50.689Z,50.61
2023-05-16T00:45:19.033Z,50.69
2023-05-16T00:47:48.935Z,50.57
2023-05-16T00:50:18.048Z,50.50
2023-05-16T00:52:45.979Z,50.48
2023-05-16T00:55:15.560Z,50.31
2023-05-16T00:57:43.423Z,50.30
2023-05-16T01:00:12.555Z,50.51
2023-05-16T01:02:40.601Z,50.33
2023-05-16T01:05:09.335Z,50.46
2023-05-16T01:07:37.853Z,50.37
2023-05-16T01:10:09.274Z,50.59
2023-05-16T01:13:09.341Z,50.63
2023-05-16T01:15:54.222Z,50.57
2023-05-16T01:18:44.863Z,50.77
2023-05-16T01:21:21.601Z,50.88
2023-05-16T01:24:00.781Z,50.83
2023-05-16T01:26:30.088Z,50.70
2023-05-16T01:28:58.895Z,50.56
2023-05-16T01:31:26.806Z,50.90
2023-05-16T01:33:54.664Z,50.81
2023-05-16T01:36:25.469Z,50.98
2023-05-16T01:39:27.093Z,50.93
2023-05-16T01:42:09.939Z,50.83
2023-05-16T01:45:12.549Z,50.96
2023-05-16T01:47:45.084Z,51.03
2023-05-16T01:50:20.458Z,50.89
2023-05-16T01:52:48.182Z,51.09
2023-05-16T01:55:42.340Z,50.88
2023-05-16T01:58:11.462Z,51.13
2023-05-16T02:00:41.024Z,50.99
2023-05-16T02:03:09.288Z,51.15
2023-05-16T02:05:37.231Z,51.17
2023-05-16T02:08:05.360Z,50.99
2023-05-16T02:10:33.126Z,51.10
2023-05-16T02:13:00.987Z,51.13
2023-05-16T02:15:29.753Z,51.10
2023-05-16T02:17:58.683Z,51.10
2023-05-16T02:20:26.709Z,51.23
2023-05-16T02:22:55.064Z,51.23
2023-05-16T02:25:23.036Z,51.23
2023-05-16T02:27:50.800Z,51.39
2023-05-16T02:30:18.640Z,51.28
2023-05-16T02:32:46.581Z,51.48
2023-05-16T02:35:14.893Z,51.53
2023-05-16T02:37:42.866Z,51.54
2023-05-16T02:40:11.507Z,51.43
2023-05-16T02:42:39.321Z,51.62
2023-05-16T02:45:07.844Z,51.58
2023-05-16T02:47:35.794Z,51.61
2023-05-16T02:50:03.824Z,51.46
2023-05-16T02:52:31.608Z,51.54
2023-05-16T02:55:16.101Z,51.67
2023-05-16T02:57:47.416Z,51.70
2023-05-16T03:00:17.836Z,51.67
2023-05-16T03:02:46.946Z,51.71
2023-05-16T03:05:14.893Z,51.88
2023-05-16T03:07:42.641Z,51.70
2023-05-16T03:10:11.182Z,51.62
2023-05-16T03:12:39.517Z,51.68
2023-05-16T03:15:09.287Z,51.81
2023-05-16T03:17:37.547Z,51.81
2023-05-16T03:20:09.123Z,51.79
2023-05-16T03:22:37.213Z,51.73
2023-05-16T03:25:05.798Z,51.79
2023-05-16T03:27:33.598Z,51.80
2023-05-16T03:30:01.351Z,51.85
2023-05-16T03:32:29.621Z,51.85
2023-05-16T03:34:57.484Z,51.87
2023-05-16T03:37:26.448Z,52.00
2023-05-16T03:39:54.339Z,51.85
2023-05-16T03:42:22.165Z,51.92
2023-05-16T03:44:49.910Z,51.86
2023-05-16T03:47:17.739Z,51.97
2023-05-16T03:49:45.472Z,51.89
2023-05-16T03:52:13.178Z,51.91
2023-05-16T03:54:40.884Z,51.90
2023-05-16T03:57:08.622Z,51.98
2023-05-16T03:59:36.395Z,51.96
2023-05-16T04:02:04.445Z,51.90
2023-05-16T04:04:32.641Z,52.02
2023-05-16T04:07:02.155Z,52.05
2023-05-16T04:09:29.888Z,52.25
2023-05-16T04:11:57.703Z,52.30
2023-05-16T04:14:25.535Z,52.22
2023-05-16T04:16:53.299Z,52.35
2023-05-16T04:19:21.188Z,52.40
2023-05-16T04:21:49.014Z,52.40
2023-05-16T04:24:16.801Z,52.57
2023-05-16T04:26:45.053Z,52.58
2023-05-16T04:29:14.333Z,52.58
2023-05-16T04:31:42.115Z,52.66
2023-05-16T04:34:09.891Z,52.71
2023-05-16T04:36:38.414Z,52.63
2023-05-16T04:39:06.565Z,52.62
2023-05-16T04:41:36.129Z,52.53
2023-05-16T04:44:04.538Z,52.64
2023-05-16T04:46:32.616Z,52.66
2023-05-16T04:49:00.418Z,52.62
2023-05-16T04:51:28.599Z,52.64
2023-05-16T04:53:56.409Z,52.65
2023-05-16T04:56:24.237Z,52.76
2023-05-16T04:58:52.005Z,52.72
2023-05-16T05:01:19.823Z,52.89
2023-05-16T05:03:48.420Z,52.75
2023-05-16T05:06:16.524Z,52.90
2023-05-16T05:08:44.290Z,52.73
2023-05-16T05:11:12.080Z,52.74
2023-05-16T05:13:41.258Z,52.70
2023-05-16T05:16:09.198Z,52.68
2023-05-16T05:18:37.010Z,52.65
2023-05-16T05:21:04.933Z,52.57
2023-05-16T05:23:35.062Z,52.65
2023-05-16T05:26:02.810Z,52.51
2023-05-16T05:28:30.635Z,52.74
2023-05-16T05:30:58.389Z,52.73
2023-05-16T05:33:29.607Z,52.83
2023-05-16T05:35:57.755Z,52.99
2023-05-16T05:38:26.002Z,53.10
2023-05-16T05:40:53.821Z,52.93
2023-05-16T05:43:21.552Z,52.92
2023-05-16T05:45:49.642Z,52.88
2023-05-16T05:48:18.665Z,52.74
2023-05-16T05:50:46.433Z,52.59
2023-05-16T05:53:14.219Z,52.55
2023-05-16T05:55:42.293Z,52.51
2023-05-16T05:58:10.107Z,52.37
2023-05-16T06:00:39.919Z,52.41
2023-05-16T06:03:07.848Z,52.41
2023-05-16T06:05:36.068Z,52.51
2023-05-16T06:08:03.981Z,52.38
2023-05-16T06:10:31.763Z,52.30
2023-05-16T06:13:02.579Z,52.36
2023-05-16T06:15:30.764Z,52.06
2023-05-16T06:17:58.643Z,52.16
2023-05-16T06:20:26.527Z,52.12
2023-05-16T06:22:54.576Z,52.20
2023-05-16T06:25:22.443Z,52.06
2023-05-16T06:27:50.727Z,51.86
2023-05-16T06:30:20.678Z,51.86
2023-05-16T06:32:48.668Z,51.83
2023-05-16T06:35:16.760Z,51.80
2023-05-16T06:37:46.464Z,51.62
2023-05-16T06:40:14.901Z,51.51
2023-05-16T06:42:43.104Z,51.58
2023-05-16T06:45:13.074Z,51.55
2023-05-16T06:47:41.213Z,51.38
2023-05-16T06:50:10.988Z,51.36
2023-05-16T06:52:40.448Z,51.63
2023-05-16T06:55:10.254Z,51.66
2023-05-16T06:57:38.031Z,51.39
2023-05-16T07:00:07.264Z,51.20
2023-05-16T07:02:35.146Z,51.29
2023-05-16T07:05:03.067Z,51.27
2023-05-16T07:07:30.961Z,51.14
2023-05-16T07:09:59.017Z,51.34
2023-05-16T07:12:26.793Z,51.28
2023-05-16T07:14:54.667Z,51.01
2023-05-16T07:17:22.459Z,51.03
2023-05-16T07:19:51.642Z,51.08
2023-05-16T07:22:19.718Z,50.95
2023-05-16T07:24:47.567Z,50.79
2023-05-16T07:27:15.613Z,50.89
2023-05-16T07:29:45.149Z,50.63
2023-05-16T07:32:15.057Z,50.73
2023-05-16T07:34:45.030Z,50.50
2023-05-16T07:37:13.782Z,50.44
2023-05-16T07:39:43.806Z,50.50
2023-05-16T07:42:11.909Z,50.61
2023-05-16T07:44:39.654Z,50.38
2023-05-16T07:47:07.696Z,50.16
2023-05-16T07:49:35.504Z,50.21
2023-05-16T07:52:05.196Z,50.21
2023-05-16T07:54:35.718Z,50.10
2023-05-16T07:57:04.373Z,50.28
2023-05-16T07:59:32.272Z,50.18
2023-05-16T08:02:00.340Z,49.98
2023-05-16T08:04:28.686Z,50.18
2023-05-16T08:06:56.441Z,50.20
2023-05-16T08:09:27.088Z,50.34
2023-05-16T08:11:54.805Z,50.27
2023-05-16T08:14:22.638Z,50.20
2023-05-16T08:16:50.568Z,50.03
2023-05-16T08:19:18.312Z,50.04
2023-05-16T08:21:47.402Z,50.05
2023-05-16T08:24:17.023Z,49.95
2023-05-16T08:26:47.217Z,50.12
2023-05-16T08:29:15.088Z,49.85
2023-05-16T08:31:43.024Z,49.67
2023-05-16T08:34:10.851Z,49.62
2023-05-16T08:36:39.189Z,49.53
2023-05-16T08:39:07.679Z,49.42
2023-05-16T08:41:35.613Z,49.26
2023-05-16T08:44:04.090Z,49.22
2023-05-16T08:46:35.844Z,49.01
2023-05-16T08:49:08.013Z,48.81
2023-05-16T08:51:38.388Z,48.61
2023-05-16T08:54:13.658Z,48.57
2023-05-16T08:56:45.930Z,48.67
2023-05-16T08:59:13.982Z,48.90
2023-05-16T09:01:42.262Z,48.74
2023-05-16T09:04:12.111Z,48.65
2023-05-16T09:06:41.965Z,48.35
2023-05-16T09:09:12.951Z,48.54
2023-05-16T09:11:43.056Z,48.45
2023-05-16T09:14:10.847Z,48.59
2023-05-16T09:16:39.235Z,48.69
2023-05-16T09:19:07.134Z,48.73
2023-05-16T09:21:36.029Z,48.27
2023-05-16T09:24:08.861Z,48.18
2023-05-16T09:26:39.382Z,48.11
2023-05-16T09:29:13.198Z,48.32
2023-05-16T09:31:41.174Z,48.75
2023-05-16T09:34:11.922Z,48.36
2023-05-16T09:36:43.655Z,48.21
2023-05-16T09:39:16.088Z,48.00
2023-05-16T09:41:45.444Z,47.97
2023-05-16T09:44:13.279Z,48.05
2023-05-16T09:46:42.386Z,48.22
2023-05-16T09:49:14.104Z,48.28
2023-05-16T09:51:42.227Z,48.20
2023-05-16T09:54:10.232Z,48.22
2023-05-16T09:56:51.625Z,47.74
2023-05-16T09:59:19.404Z,48.04
2023-05-16T10:01:49.048Z,47.65
2023-05-16T10:04:17.287Z,47.73
2023-05-16T10:06:47.733Z,47.46
2023-05-16T10:09:18.595Z,47.16
2023-05-16T10:11:50.156Z,46.99
2023-05-16T10:14:19.502Z,46.69
2023-05-16T10:16:49.754Z,46.34
2023-05-16T10:19:21.671Z,46.50
2023-05-16T10:22:02.812Z,46.46
2023-05-16T10:24:48.221Z,46.14
2023-05-16T10:27:19.316Z,46.28
2023-05-16T10:29:54.737Z,46.46
2023-05-16T10:32:26.302Z,46.15
2023-05-16T10:34:56.171Z,46.05
2023-05-16T10:37:24.963Z,45.94
2023-05-16T10:39:53.215Z,45.64
2023-05-16T10:42:21.370Z,45.73
2023-05-16T10:44:58.479Z,45.67
2023-05-16T10:47:34.096Z,45.45
2023-05-16T10:50:01.857Z,45.65
2023-05-16T10:52:35.816Z,45.51
2023-05-16T10:55:07.013Z,45.42
2023-05-16T10:57:36.688Z,45.16
2023-05-16T11:00:08.405Z,45.03
2023-05-16T11:02:42.047Z,45.11
2023-05-16T11:05:19.103Z,45.36
2023-05-16T11:08:05.202Z,45.00
2023-05-16T11:10:33.445Z,45.41
2023-05-16T11:13:07.955Z,45.53
2023-05-16T11:15:37.520Z,45.60
2023-05-16T11:18:08.725Z,45.59
2023-05-16T11:20:39.597Z,45.86
2023-05-16T11:23:20.579Z,45.67
2023-05-16T11:25:57.404Z,45.24
2023-05-16T11:28:27.014Z,45.28
2023-05-16T11:31:00.160Z,44.70
2023-05-16T11:33:31.043Z,44.93
2023-05-16T11:36:15.101Z,44.98
2023-05-16T11:38:44.417Z,44.57
2023-05-16T11:41:14.901Z,44.38
2023-05-16T11:43:45.180Z,44.17
2023-05-16T11:46:14.489Z,44.01
2023-05-16T11:48:42.589Z,44.24
2023-05-16T11:51:11.869Z,43.76
2023-05-16T11:53:39.728Z,43.70
2023-05-16T11:56:08.871Z,43.46
2023-05-16T11:58:38.490Z,43.38
2023-05-16T12:01:06.694Z,43.19
2023-05-16T12:03:36.107Z,43.03
2023-05-16T12:06:04.115Z,42.64
2023-05-16T12:08:31.978Z,42.26
2023-05-16T12:11:00.452Z,42.07
2023-05-16T12:13:28.252Z,42.05
2023-05-16T12:15:58.663Z,41.75
2023-05-16T12:18:27.043Z,41.76
2023-05-16T12:20:54.892Z,41.81
2023-05-16T12:23:22.743Z,41.96
2023-05-16T12:25:50.847Z,42.01
2023-05-16T12:28:18.752Z,41.76
2023-05-16T12:30:48.160Z,42.28
2023-05-16T12:33:17.324Z,42.00
2023-05-16T12:35:47.428Z,41.98
2023-05-16T12:38:17.787Z,41.74
2023-05-16T12:40:46.821Z,41.54
2023-05-16T12:43:21.378Z,41.42
2023-05-16T12:45:53.465Z,41.38
2023-05-16T12:48:24.768Z,41.35
2023-05-16T12:50:53.477Z,41.54
2023-05-16T12:53:21.494Z,41.30
2023-05-16T12:55:49.308Z,41.33
2023-05-16T12:58:20.234Z,40.92
2023-05-16T13:00:49.582Z,41.03
2023-05-16T13:03:17.533Z,41.24
2023-05-16T13:05:47.842Z,41.08
2023-05-16T13:08:15.979Z,41.14
2023-05-16T13:10:45.756Z,40.85
2023-05-16T13:13:22.028Z,40.80
2023-05-16T13:15:57.143Z,40.56
2023-05-16T13:18:25.015Z,40.60
2023-05-16T13:20:54.650Z,40.61
2023-05-16T13:23:22.424Z,40.62
2023-05-16T13:25:50.325Z,40.39
2023-05-16T13:28:18.100Z,40.13
2023-05-16T13:30:49.835Z,39.83
2023-05-16T13:33:18.049Z,39.88
2023-05-16T13:35:45.934Z,39.65
2023-05-16T13:38:15.410Z,39.72
2023-05-16T13:40:43.255Z,39.59
2023-05-16T13:43:15.732Z,39.34
2023-05-16T13:45:44.251Z,39.83
2023-05-16T13:48:12.239Z,39.84
2023-05-16T13:50:44.065Z,39.68
2023-05-16T13:53:14.457Z,39.39
2023-05-16T13:55:42.630Z,39.51
2023-05-16T13:58:10.894Z,39.68
2023-05-16T14:00:45.317Z,39.44
2023-05-16T14:03:14.493Z,39.34
2023-05-16T14:05:43.149Z,39.02
2023-05-16T14:08:10.982Z,38.87
2023-05-16T14:10:38.694Z,39.29
2023-05-16T14:13:06.580Z,38.96
2023-05-16T14:15:34.446Z,39.12
2023-05-16T14:18:06.157Z,38.75
2023-05-16T14:20:34.107Z,38.52
2023-05-16T14:23:02.205Z,38.70
2023-05-16T14:25:30.298Z,38.28
2023-05-16T14:27:58.885Z,38.59
2023-05-16T14:30:27.454Z,38.38
2023-05-16T14:32:56.230Z,37.86
2023-05-16T14:35:26.935Z,38.36
2023-05-16T14:37:55.145Z,38.34
2023-05-16T14:40:23.531Z,37.97
2023-05-16T14:42:51.577Z,38.00
2023-05-16T14:45:19.519Z,37.54
2023-05-16T14:47:48.441Z,37.21
2023-05-16T14:50:16.205Z,36.77
2023-05-16T14:52:44.955Z,36.35
2023-05-16T14:55:12.885Z,35.53
2023-05-16T14:57:42.768Z,35.81
2023-05-16T15:00:15.432Z,35.35
2023-05-16T15:02:43.869Z,35.65
2023-05-16T15:05:11.669Z,35.54
2023-05-16T15:07:39.777Z,35.53
2023-05-16T15:10:11.440Z,35.29
2023-05-16T15:12:41.106Z,35.40
2023-05-16T15:15:14.934Z,34.99
2023-05-16T15:17:44.495Z,35.35
2023-05-16T15:20:13.304Z,35.30
2023-05-16T15:22:41.682Z,35.23
2023-05-16T15:25:10.832Z,35.21
2023-05-16T15:27:38.581Z,34.99
2023-05-16T15:30:07.316Z,35.06
2023-05-16T15:32:35.254Z,34.57
2023-05-16T15:35:03.940Z,34.84
2023-05-16T15:37:31.726Z,34.73
2023-05-16T15:39:59.477Z,34.94
2023-05-16T15:42:27.420Z,34.97
2023-05-16T15:44:55.392Z,34.81
2023-05-16T15:47:23.325Z,35.04
2023-05-16T15:49:51.130Z,34.72
2023-05-16T15:52:20.617Z,34.68
2023-05-16T15:54:50.422Z,34.52
2023-05-16T15:57:19.221Z,34.02
2023-05-16T15:59:47.023Z,33.74
2023-05-16T16:02:16.855Z,33.50
2023-05-16T16:04:44.600Z,33.67
2023-05-16T16:07:12.694Z,33.66
2023-05-16T16:09:40.883Z,33.54
2023-05-16T16:12:08.919Z,33.40
2023-05-16T16:14:37.034Z,33.34
2023-05-16T16:17:07.468Z,33.52
2023-05-16T16:19:35.482Z,33.32
2023-05-16T16:22:04.986Z,33.06
2023-05-16T16:24:32.779Z,33.05
2023-05-16T16:27:00.697Z,33.04
2023-05-16T16:29:29.084Z,32.90
2023-05-16T16:31:57.011Z,32.44
2023-05-16T16:34:25.042Z,32.30
2023-05-16T16:36:53.015Z,32.24
2023-05-16T16:39:21.371Z,32.21
2023-05-16T16:41:49.718Z,32.27
2023-05-16T16:44:19.117Z,31.71
2023-05-16T16:46:47.063Z,31.42
2023-05-16T16:49:14.947Z,30.94
2023-05-16T16:51:42.824Z,30.91
2023-05-16T16:54:10.553Z,30.75
2023-05-16T16:56:38.406Z,30.81
2023-05-16T16:59:06.766Z,31.09
2023-05-16T17:01:35.153Z,30.78
2023-05-16T17:04:03.111Z,30.37
2023-05-16T17:06:30.924Z,30.18
2023-05-16T17:09:03.676Z,30.13
2023-05-16T17:11:31.822Z,30.56
2023-05-16T17:13:59.962Z,30.19
2023-05-16T17:16:29.137Z,30.41
2023-05-16T17:19:00.701Z,30.47
2023-05-16T17:21:28.525Z,30.00
2023-05-16T17:23:58.237Z,30.07
2023-05-16T17:26:29.102Z,29.97
2023-05-16T17:29:00.167Z,30.04
2023-05-16T17:31:30.799Z,30.05
2023-05-16T17:33:58.654Z,29.89
2023-05-16T17:36:26.454Z,29.73
2023-05-16T17:38:56.248Z,29.54
2023-05-16T17:41:25.465Z,29.77
2023-05-16T17:43:54.405Z,29.54
2023-05-16T17:46:22.196Z,29.51
2023-05-16T17:48:50.162Z,29.92
2023-05-16T17:51:17.994Z,29.79
2023-05-16T17:53:45.827Z,29.86
2023-05-16T17:56:13.961Z,29.83
2023-05-16T17:58:42.724Z,29.84
2023-05-16T18:01:10.695Z,29.72
2023-05-16T18:03:43.321Z,29.86
2023-05-16T18:06:12.312Z,29.78
2023-05-16T18:08:40.200Z,29.73
2023-05-16T18:11:08.070Z,29.81
2023-05-16T18:13:35.882Z,29.93
2023-05-16T18:16:03.836Z,30.06
2023-05-16T18:18:32.056Z,29.90
2023-05-16T18:20:59.834Z,29.87
2023-05-16T18:23:27.596Z,30.22
2023-05-16T18:25:55.426Z,29.75
2023-05-16T18:28:23.228Z,29.86
2023-05-16T18:30:51.338Z,29.80
2023-05-16T18:33:19.116Z,29.61
2023-05-16T18:35:46.919Z,29.54
2023-05-16T18:38:24.145Z,29.49
2023-05-16T18:41:01.901Z,29.75
2023-05-16T18:43:30.647Z,29.67
2023-05-16T18:45:58.403Z,29.72
2023-05-16T18:48:28.921Z,29.70
2023-05-16T18:50:58.942Z,29.48
2023-05-16T18:53:26.946Z,29.81
2023-05-16T18:55:54.806Z,29.90
2023-05-16T18:58:22.736Z,29.86
2023-05-16T19:00:50.790Z,30.09
2023-05-16T19:03:19.070Z,30.07
2023-05-16T19:05:48.820Z,30.10
2023-05-16T19:08:16.811Z,29.99
2023-05-16T19:10:44.882Z,30.31
2023-05-16T19:13:12.759Z,30.16
2023-05-16T19:15:40.557Z,30.41
2023-05-16T19:18:08.377Z,30.38
2023-05-16T19:20:36.652Z,30.52
2023-05-16T19:23:04.432Z,30.47
2023-05-16T19:25:32.591Z,30.70
2023-05-16T19:28:00.557Z,30.50
2023-05-16T19:30:28.617Z,30.78
2023-05-16T19:32:56.632Z,30.91
2023-05-16T19:35:24.550Z,31.20
2023-05-16T19:37:52.311Z,31.26
2023-05-16T19:40:20.265Z,31.56
2023-05-16T19:42:48.406Z,31.45
2023-05-16T19:45:16.338Z,31.72
2023-05-16T19:47:45.167Z,32.15
2023-05-16T19:50:13.027Z,32.17
2023-05-16T19:52:40.883Z,32.40
2023-05-16T19:55:10.461Z,32.75
2023-05-16T19:57:38.237Z,33.07
2023-05-16T20:00:08.327Z,33.39
2023-05-16T20:02:45.436Z,33.65
2023-05-16T20:05:14.498Z,33.66
2023-05-16T20:07:42.362Z,33.94
2023-05-16T20:10:10.671Z,34.02
2023-05-16T20:12:39.180Z,34.17
2023-05-16T20:15:08.869Z,34.41
2023-05-16T20:17:38.082Z,34.36
2023-05-16T20:20:08.997Z,34.50
2023-05-16T20:22:41.698Z,34.72
2023-05-16T20:25:13.032Z,34.82
2023-05-16T20:27:41.016Z,34.81
2023-05-16T20:30:09.829Z,34.92
2023-05-16T20:32:38.134Z,34.91
2023-05-16T20:35:09.175Z,35.04
2023-05-16T20:37:37.633Z,34.90
2023-05-16T20:40:06.404Z,34.88
2023-05-16T20:42:34.644Z,34.87
2023-05-16T20:45:02.424Z,34.90
2023-05-16T20:47:30.504Z,34.94
2023-05-16T20:49:59.736Z,34.85
2023-05-16T20:52:27.874Z,34.89
2023-05-16T20:54:58.198Z,34.96
2023-05-16T20:57:26.134Z,34.94
2023-05-16T20:59:54.005Z,35.01
2023-05-16T21:02:21.735Z,34.95
2023-05-16T21:04:49.559Z,35.05
2023-05-16T21:07:17.344Z,35.13
2023-05-16T21:09:45.407Z,35.11
2023-05-16T21:12:13.206Z,35.14
2023-05-16T21:14:41.934Z,35.06
2023-05-16T21:17:09.775Z,35.07
2023-05-16T21:19:38.645Z,35.12
2023-05-16T21:22:06.772Z,35.21
2023-05-16T21:24:35.567Z,35.19
2023-05-16T21:27:04.459Z,35.15
2023-05-16T21:29:32.342Z,35.00
2023-05-16T21:32:00.517Z,35.15
2023-05-16T21:34:28.916Z,35.08
2023-05-16T21:36:57.937Z,35.10
2023-05-16T21:39:25.876Z,35.03
2023-05-16T21:41:53.694Z,35.13
2023-05-16T21:44:21.530Z,35.18
2023-05-16T21:46:49.689Z,35.22
2023-05-16T21:49:17.967Z,35.23
2023-05-16T21:51:46.198Z,35.29
2023-05-16T21:54:17.022Z,35.18
2023-05-16T21:56:44.770Z,35.33
2023-05-16T21:59:13.804Z,35.33
2023-05-16T22:01:41.562Z,35.19
2023-05-16T22:04:09.612Z,35.34
2023-05-16T22:06:37.663Z,35.30
2023-05-16T22:09:05.963Z,35.36
2023-05-16T22:11:34.388Z,35.45
2023-05-16T22:14:02.182Z,35.29
2023-05-16T22:16:29.987Z,35.40
2023-05-16T22:18:57.856Z,35.59
2023-05-16T22:21:25.932Z,35.61
2023-05-16T22:23:53.714Z,35.63
2023-05-16T22:26:21.842Z,35.58
2023-05-16T22:28:49.574Z,35.70
2023-05-16T22:31:17.400Z,35.78
2023-05-16T22:33:45.342Z,35.98
2023-05-16T22:36:13.262Z,35.96
2023-05-16T22:38:40.980Z,36.11
2023-05-16T22:41:08.787Z,36.37
2023-05-16T22:43:36.810Z,36.28
2023-05-16T22:46:04.584Z,36.48
2023-05-16T22:48:32.487Z,36.42
2023-05-16T22:51:02.000Z,36.60
2023-05-16T22:53:30.201Z,36.83
2023-05-16T22:55:57.970Z,36.95
2023-05-16T22:58:25.826Z,36.96
2023-05-16T23:00:53.676Z,37.12
2023-05-16T23:03:21.829Z,37.04
2023-05-16T23:05:49.944Z,37.23
2023-05-16T23:08:17.757Z,37.37
2023-05-16T23:10:45.701Z,37.38
2023-05-16T23:13:13.563Z,37.33
2023-05-16T23:15:41.367Z,37.46
2023-05-16T23:18:09.279Z,37.57
2023-05-16T23:20:37.302Z,37.81
2023-05-16T23:23:05.187Z,37.66
2023-05-16T23:25:32.996Z,37.75
2023-05-16T23:28:00.765Z,37.99
2023-05-16T23:30:28.589Z,38.13
2023-05-16T23:32:56.562Z,38.12
2023-05-16T23:35:24.544Z,38.06
2023-05-16T23:37:52.321Z,38.17
2023-05-16T23:40:20.148Z,38.32
2023-05-16T23:42:47.933Z,38.40
2023-05-16T23:45:16.545Z,38.45
2023-05-16T23:47:44.395Z,38.54
2023-05-16T23:50:12.155Z,38.43
2023-05-16T23:52:39.910Z,38.57
2023-05-16T23:55:08.364Z,38.67
2023-05-16T23:57:36.204Z,38.69
